createdAt,value
2019-02-14T00:00:37.505Z,9.01
2019-02-14T00:03:07.796Z,9.23
2019-02-14T00:05:38.148Z,9.23
2019-02-14T00:08:08.484Z,9.15
2019-02-14T00:10:39.085Z,9.17
2019-02-14T00:13:09.374Z,8.94
2019-02-14T00:15:39.638Z,8.76
2019-02-14T00:18:09.921Z,8.91
2019-02-14T00:20:40.296Z,9.12
2019-02-14T00:23:10.646Z,8.91
2019-02-14T00:25:40.927Z,9.07
2019-02-14T00:28:11.209Z,9.31
2019-02-14T00:30:41.500Z,9.31
2019-02-14T00:33:11.788Z,9.43
2019-02-14T00:35:42.922Z,9.58
2019-02-14T00:38:13.206Z,9.47
2019-02-14T00:40:43.659Z,9.57
2019-02-14T00:43:13.941Z,9.31
2019-02-14T00:45:44.228Z,9.03
2019-02-14T00:48:14.553Z,9.07
2019-02-14T00:50:45.786Z,9.07
2019-02-14T00:53:16.060Z,8.86
2019-02-14T00:55:46.348Z,9.02
2019-02-14T00:58:16.670Z,8.93
2019-02-14T01:00:46.954Z,9.14
2019-02-14T01:03:17.242Z,9.23
2019-02-14T01:05:47.592Z,9.36
2019-02-14T01:08:17.869Z,9.33
2019-02-14T01:10:48.146Z,9.48
2019-02-14T01:13:18.469Z,9.50
2019-02-14T01:15:49.617Z,9.41
2019-02-14T01:18:19.903Z,9.48
2019-02-14T01:20:50.201Z,9.16
2019-02-14T01:23:20.588Z,9.10
2019-02-14T01:25:50.874Z,8.96
2019-02-14T01:28:21.239Z,8.57
2019-02-14T01:30:51.522Z,8.42
2019-02-14T01:33:21.931Z,8.46
2019-02-14T01:35:52.223Z,8.39
2019-02-14T01:38:22.522Z,8.48
2019-02-14T01:40:52.805Z,8.46
2019-02-14T01:43:23.214Z,8.48
2019-02-14T01:45:53.500Z,8.50
2019-02-14T01:48:23.782Z,8.38
2019-02-14T01:50:54.082Z,8.33
2019-02-14T01:53:24.371Z,8.40
2019-02-14T01:55:54.639Z,8.38
2019-02-14T01:58:24.910Z,8.50
2019-02-14T02:00:55.211Z,8.43
2019-02-14T02:03:25.490Z,8.68
2019-02-14T02:05:55.908Z,8.60
2019-02-14T02:08:26.242Z,8.63
2019-02-14T02:10:56.786Z,8.58
2019-02-14T02:13:27.122Z,8.51
2019-02-14T02:15:57.415Z,8.48
2019-02-14T02:18:28.073Z,8.43
2019-02-14T02:20:58.341Z,8.47
2019-02-14T02:23:28.650Z,8.28
2019-02-14T02:25:58.943Z,8.31
2019-02-14T02:28:29.247Z,8.38
2019-02-14T02:30:59.533Z,8.30
2019-02-14T02:33:30.146Z,8.26
2019-02-14T02:36:00.888Z,8.19
2019-02-14T02:38:31.293Z,8.06
2019-02-14T02:41:01.574Z,8.08
2019-02-14T02:43:31.902Z,8.15
2019-02-14T02:46:03.567Z,8.11
2019-02-14T02:48:34.018Z,7.98
2019-02-14T02:51:04.312Z,7.94
2019-02-14T02:53:39.214Z,8.11
2019-02-14T02:56:09.500Z,8.14
2019-02-14T02:58:39.789Z,8.20
2019-02-14T03:01:10.069Z,8.31
2019-02-14T03:03:40.333Z,8.34
2019-02-14T03:06:11.027Z,8.19
2019-02-14T03:08:41.338Z,8.23
2019-02-14T03:11:11.623Z,8.44
2019-02-14T03:13:42.989Z,8.46
2019-02-14T03:16:13.287Z,8.64
2019-02-14T03:18:43.561Z,8.68
2019-02-14T03:21:13.837Z,8.76
2019-02-14T03:23:45.106Z,8.77
2019-02-14T03:26:15.473Z,8.60
2019-02-14T03:28:45.779Z,8.58
2019-02-14T03:31:16.081Z,8.66
2019-02-14T03:33:46.364Z,9.05
2019-02-14T03:36:19.144Z,8.98
2019-02-14T03:38:49.576Z,8.85
2019-02-14T03:41:20.925Z,8.74
2019-02-14T03:43:51.207Z,8.61
2019-02-14T03:46:21.505Z,8.47
2019-02-14T03:48:51.800Z,8.44
2019-02-14T03:51:22.092Z,8.39
2019-02-14T03:53:52.392Z,8.50
2019-02-14T03:56:22.673Z,8.31
2019-02-14T03:58:52.946Z,8.45
2019-02-14T04:01:23.213Z,8.56
2019-02-14T04:03:53.501Z,8.63
2019-02-14T04:06:27.586Z,8.75
2019-02-14T04:08:55.776Z,8.78
2019-02-14T04:11:26.053Z,8.94
2019-02-14T04:13:56.351Z,9.05
2019-02-14T04:16:26.708Z,8.87
2019-02-14T04:18:56.993Z,8.85
2019-02-14T04:21:27.317Z,8.71
2019-02-14T04:23:57.852Z,8.75
2019-02-14T04:26:28.129Z,8.80
2019-02-14T04:28:58.392Z,8.80
2019-02-14T04:31:28.689Z,8.75
2019-02-14T04:33:59.013Z,8.88
2019-02-14T04:36:35.768Z,8.94
2019-02-14T04:39:01.401Z,8.90
2019-02-14T04:41:32.757Z,9.05
2019-02-14T04:44:03.099Z,9.08
2019-02-14T04:46:33.501Z,9.05
2019-02-14T04:49:03.825Z,8.88
2019-02-14T04:51:35.214Z,8.94
2019-02-14T04:54:05.663Z,8.94
2019-02-14T04:56:36.044Z,8.91
2019-02-14T04:59:06.332Z,8.82
2019-02-14T05:01:36.629Z,8.89
2019-02-14T05:04:06.975Z,8.92
2019-02-14T05:06:44.216Z,8.93
2019-02-14T05:09:10.030Z,9.01
2019-02-14T05:11:40.314Z,9.04
2019-02-14T05:14:10.627Z,9.00
2019-02-14T05:16:41.360Z,9.03
2019-02-14T05:19:11.643Z,9.12
2019-02-14T05:21:41.914Z,9.03
2019-02-14T05:24:12.183Z,9.06
2019-02-14T05:26:42.480Z,9.11
2019-02-14T05:29:12.785Z,8.97
2019-02-14T05:31:43.061Z,9.12
2019-02-14T05:34:13.361Z,9.04
2019-02-14T05:36:43.926Z,9.05
2019-02-14T05:39:14.307Z,9.10
2019-02-14T05:41:44.579Z,9.12
2019-02-14T05:44:14.877Z,9.07
2019-02-14T05:46:45.244Z,9.08
2019-02-14T05:49:15.680Z,9.11
2019-02-14T05:51:46.014Z,9.18
2019-02-14T05:54:16.258Z,9.17
2019-02-14T05:56:46.548Z,9.07
2019-02-14T05:59:17.055Z,9.14
2019-02-14T06:01:47.358Z,9.17
2019-02-14T06:04:17.674Z,9.27
2019-02-14T06:06:47.986Z,9.09
2019-02-14T06:09:18.876Z,9.25
2019-02-14T06:11:49.123Z,9.18
2019-02-14T06:14:19.436Z,9.15
2019-02-14T06:16:49.716Z,9.33
2019-02-14T06:19:20.018Z,9.48
2019-02-14T06:21:50.311Z,9.32
2019-02-14T06:24:20.607Z,9.44
2019-02-14T06:26:52.007Z,9.44
2019-02-14T06:29:22.298Z,9.44
2019-02-14T06:31:52.603Z,9.20
2019-02-14T06:34:22.892Z,8.48
2019-02-14T06:36:53.219Z,8.52
2019-02-14T06:39:23.495Z,8.74
2019-02-14T06:41:54.847Z,8.84
2019-02-14T06:44:25.139Z,8.82
2019-02-14T06:46:55.470Z,8.87
2019-02-14T06:49:26.617Z,8.94
2019-02-14T06:51:56.912Z,8.92
2019-02-14T06:54:27.212Z,9.02
2019-02-14T06:56:57.489Z,9.19
2019-02-14T06:59:27.784Z,9.14
2019-02-14T07:01:58.341Z,9.38
2019-02-14T07:04:28.600Z,9.43
2019-02-14T07:06:58.914Z,9.30
2019-02-14T07:09:29.186Z,9.35
2019-02-14T07:11:59.470Z,9.27
2019-02-14T07:14:29.925Z,9.21
2019-02-14T07:17:00.237Z,9.06
2019-02-14T07:19:31.390Z,9.09
2019-02-14T07:22:01.665Z,9.11
2019-02-14T07:24:31.967Z,9.05
2019-02-14T07:27:02.288Z,9.03
2019-02-14T07:29:32.591Z,9.12
2019-02-14T07:32:02.693Z,9.13
2019-02-14T07:34:32.996Z,9.25
2019-02-14T07:37:03.282Z,9.27
2019-02-14T07:39:33.552Z,9.15
2019-02-14T07:42:03.861Z,9.22
2019-02-14T07:44:34.179Z,9.29
2019-02-14T07:47:05.980Z,9.41
2019-02-14T07:49:36.295Z,9.25
2019-02-14T07:52:06.568Z,9.25
2019-02-14T07:54:36.862Z,9.08
2019-02-14T07:57:07.151Z,9.08
2019-02-14T07:59:38.334Z,9.02
2019-02-14T08:02:08.674Z,9.03
2019-02-14T08:04:38.949Z,9.14
2019-02-14T08:07:09.250Z,9.14
2019-02-14T08:09:39.541Z,9.02
2019-02-14T08:12:09.845Z,9.17
2019-02-14T08:14:40.140Z,9.15
2019-02-14T08:17:10.423Z,9.22
2019-02-14T08:19:40.713Z,9.37
2019-02-14T08:22:10.987Z,9.42
2019-02-14T08:24:41.320Z,9.36
2019-02-14T08:27:11.608Z,9.39
2019-02-14T08:29:41.909Z,9.50
2019-02-14T08:32:12.176Z,9.64
2019-02-14T08:34:42.458Z,9.65
2019-02-14T08:37:12.765Z,9.59
2019-02-14T08:39:43.050Z,9.50
2019-02-14T08:42:13.356Z,9.44
2019-02-14T08:44:43.673Z,9.56
2019-02-14T08:47:13.976Z,9.75
2019-02-14T08:49:44.243Z,9.67
2019-02-14T08:52:14.537Z,9.75
2019-02-14T08:54:45.032Z,9.84
2019-02-14T08:57:16.683Z,9.73
2019-02-14T08:59:46.946Z,9.64
2019-02-14T09:02:17.249Z,9.66
2019-02-14T09:04:47.572Z,9.52
2019-02-14T09:07:17.892Z,9.60
2019-02-14T09:09:48.163Z,9.48
2019-02-14T09:12:18.471Z,9.47
2019-02-14T09:14:48.766Z,9.43
2019-02-14T09:17:19.066Z,9.32
2019-02-14T09:19:49.363Z,9.27
2019-02-14T09:22:21.184Z,9.46
2019-02-14T09:24:51.522Z,9.41
2019-02-14T09:27:21.876Z,9.54
2019-02-14T09:29:52.175Z,9.48
2019-02-14T09:32:24.092Z,9.44
2019-02-14T09:34:54.383Z,9.38
2019-02-14T09:37:24.658Z,9.35
2019-02-14T09:39:54.949Z,9.46
2019-02-14T09:42:25.259Z,9.47
2019-02-14T09:44:55.812Z,9.46
2019-02-14T09:47:26.107Z,9.49
2019-02-14T09:49:56.402Z,9.58
2019-02-14T09:52:27.389Z,9.70
2019-02-14T09:54:57.645Z,9.73
2019-02-14T09:57:27.942Z,9.81
2019-02-14T09:59:58.242Z,9.72
2019-02-14T10:02:28.509Z,9.84
2019-02-14T10:04:58.814Z,9.75
2019-02-14T10:07:29.114Z,9.88
2019-02-14T10:09:59.398Z,9.77
2019-02-14T10:12:29.708Z,9.91
2019-02-14T10:15:00.023Z,9.89
2019-02-14T10:17:30.303Z,9.80
2019-02-14T10:20:00.599Z,9.91
2019-02-14T10:22:30.892Z,9.84
2019-02-14T10:25:01.168Z,9.83
2019-02-14T10:27:31.439Z,9.86
2019-02-14T10:30:01.757Z,9.75
2019-02-14T10:32:32.113Z,9.47
2019-02-14T10:35:02.473Z,9.58
2019-02-14T10:37:32.811Z,9.54
2019-02-14T10:40:03.100Z,9.32
2019-02-14T10:42:33.385Z,9.39
2019-02-14T10:45:04.428Z,9.61
2019-02-14T10:47:34.722Z,9.52
2019-02-14T10:50:06.634Z,9.70
2019-02-14T10:52:36.936Z,9.93
2019-02-14T10:55:09.751Z,9.89
2019-02-14T10:57:40.042Z,9.45
2019-02-14T11:00:22.630Z,9.47
2019-02-14T11:02:53.017Z,9.38
2019-02-14T11:05:23.316Z,9.15
2019-02-14T11:07:53.597Z,9.37
2019-02-14T11:10:23.897Z,9.37
2019-02-14T11:12:54.184Z,9.54
2019-02-14T11:15:25.315Z,9.30
2019-02-14T11:17:55.621Z,9.75
2019-02-14T11:20:25.884Z,9.80
2019-02-14T11:22:56.156Z,9.78
2019-02-14T11:25:29.712Z,9.78
2019-02-14T11:27:59.994Z,9.78
2019-02-14T11:30:30.283Z,9.94
2019-02-14T11:33:00.849Z,10.06
2019-02-14T11:35:31.122Z,10.16
2019-02-14T11:38:01.422Z,10.22
2019-02-14T11:40:31.766Z,10.33
2019-02-14T11:43:02.074Z,10.33
2019-02-14T11:45:32.482Z,10.35
2019-02-14T11:48:02.599Z,10.60
2019-02-14T11:50:32.884Z,10.47
2019-02-14T11:53:03.157Z,10.60
2019-02-14T11:55:33.459Z,10.55
2019-02-14T11:58:03.749Z,10.41
2019-02-14T12:00:34.046Z,10.31
2019-02-14T12:03:04.342Z,10.34
2019-02-14T12:05:34.617Z,10.40
2019-02-14T12:08:06.504Z,10.09
2019-02-14T12:10:36.796Z,10.17
2019-02-14T12:13:07.123Z,9.99
2019-02-14T12:15:37.409Z,9.74
2019-02-14T12:18:07.674Z,9.55
2019-02-14T12:20:37.952Z,9.94
2019-02-14T12:23:08.239Z,9.74
2019-02-14T12:25:38.551Z,9.44
2019-02-14T12:28:08.836Z,9.66
2019-02-14T12:30:42.290Z,9.75
2019-02-14T12:33:12.584Z,9.73
2019-02-14T12:35:42.862Z,9.90
2019-02-14T12:38:13.144Z,9.86
2019-02-14T12:40:43.429Z,10.14
2019-02-14T12:43:13.698Z,9.82
2019-02-14T12:45:44.003Z,9.65
2019-02-14T12:48:14.303Z,9.65
2019-02-14T12:50:44.620Z,9.54
2019-02-14T12:53:14.913Z,9.98
2019-02-14T12:55:45.207Z,10.01
2019-02-14T12:58:15.592Z,9.86
2019-02-14T13:00:45.931Z,10.20
2019-02-14T13:03:16.221Z,10.08
2019-02-14T13:05:46.523Z,10.20
2019-02-14T13:08:16.866Z,9.89
2019-02-14T13:10:47.148Z,9.83
2019-02-14T13:13:17.410Z,9.71
2019-02-14T13:15:47.699Z,9.69
2019-02-14T13:18:18.129Z,9.90
2019-02-14T13:20:48.408Z,9.97
2019-02-14T13:23:21.663Z,10.09
2019-02-14T13:25:51.952Z,9.95
2019-02-14T13:28:22.246Z,9.82
2019-02-14T13:30:52.804Z,9.91
2019-02-14T13:33:23.130Z,9.99
2019-02-14T13:35:53.452Z,9.85
2019-02-14T13:38:23.744Z,9.71
2019-02-14T13:40:54.698Z,9.75
2019-02-14T13:43:25.005Z,9.71
2019-02-14T13:45:55.260Z,9.64
2019-02-14T13:48:25.754Z,9.74
2019-02-14T13:50:56.043Z,9.58
2019-02-14T13:53:26.342Z,9.61
2019-02-14T13:55:56.669Z,9.70
2019-02-14T13:58:27.445Z,9.57
2019-02-14T14:00:57.947Z,9.54
2019-02-14T14:03:28.211Z,9.63
2019-02-14T14:05:59.598Z,9.85
2019-02-14T14:08:29.899Z,9.74
2019-02-14T14:11:01.466Z,9.63
2019-02-14T14:13:31.850Z,9.57
2019-02-14T14:16:02.119Z,9.59
2019-02-14T14:18:32.418Z,9.57
2019-02-14T14:21:04.364Z,9.63
2019-02-14T14:23:35.557Z,9.51
2019-02-14T14:26:06.491Z,9.51
2019-02-14T14:28:36.823Z,9.61
2019-02-14T14:31:07.112Z,9.61
2019-02-14T14:33:37.488Z,9.77
2019-02-14T14:36:07.947Z,9.81
2019-02-14T14:38:38.252Z,9.88
2019-02-14T14:41:10.252Z,9.78
2019-02-14T14:43:42.203Z,9.80
2019-02-14T14:46:14.123Z,9.87
2019-02-14T14:48:44.616Z,9.75
2019-02-14T14:51:14.964Z,9.66
2019-02-14T14:53:45.311Z,9.69
2019-02-14T14:56:15.720Z,9.73
2019-02-14T14:58:46.066Z,9.90
2019-02-14T15:01:16.420Z,10.08
2019-02-14T15:03:46.713Z,10.05
2019-02-14T15:06:17.312Z,10.13
2019-02-14T15:08:47.647Z,10.04
2019-02-14T15:11:17.960Z,10.03
2019-02-14T15:13:48.256Z,10.11
2019-02-14T15:16:18.596Z,10.13
2019-02-14T15:18:49.035Z,10.05
2019-02-14T15:21:19.963Z,9.97
2019-02-14T15:23:51.020Z,9.97
2019-02-14T15:26:21.973Z,10.12
2019-02-14T15:28:54.535Z,10.10
2019-02-14T15:31:24.870Z,10.12
2019-02-14T15:33:55.640Z,10.26
2019-02-14T15:36:28.275Z,10.16
2019-02-14T15:38:58.809Z,10.01
2019-02-14T15:41:29.263Z,9.92
2019-02-14T15:43:59.712Z,10.00
2019-02-14T15:46:30.615Z,10.05
2019-02-14T15:49:01.535Z,9.96
2019-02-14T15:51:33.178Z,9.83
2019-02-14T15:54:04.791Z,9.87
2019-02-14T15:56:35.313Z,9.90
2019-02-14T15:59:06.565Z,9.62
2019-02-14T16:01:37.358Z,9.60
2019-02-14T16:04:07.652Z,9.71
2019-02-14T16:06:38.044Z,9.53
2019-02-14T16:09:08.745Z,9.67
2019-02-14T16:11:39.374Z,9.76
2019-02-14T16:14:10.551Z,9.81
2019-02-14T16:16:43.322Z,9.83
2019-02-14T16:19:13.845Z,10.04
2019-02-14T16:21:45.198Z,9.85
2019-02-14T16:24:18.134Z,9.81
2019-02-14T16:26:48.273Z,9.89
2019-02-14T16:29:18.615Z,9.91
2019-02-14T16:31:51.081Z,9.88
2019-02-14T16:34:22.041Z,9.85
2019-02-14T16:36:52.422Z,9.75
2019-02-14T16:39:25.567Z,9.73
2019-02-14T16:41:56.039Z,9.87
2019-02-14T16:44:26.677Z,9.73
2019-02-14T16:46:57.608Z,9.71
2019-02-14T16:49:28.531Z,9.80
2019-02-14T16:51:59.931Z,9.88
2019-02-14T16:54:32.043Z,9.77
2019-02-14T16:57:02.376Z,9.63
2019-02-14T16:59:32.957Z,9.46
2019-02-14T17:02:05.000Z,9.63
2019-02-14T17:04:35.863Z,9.56
2019-02-14T17:07:06.211Z,9.55
2019-02-14T17:09:36.548Z,9.55
2019-02-14T17:12:07.214Z,9.58
2019-02-14T17:14:37.588Z,9.65
2019-02-14T17:17:09.062Z,9.89
2019-02-14T17:19:41.123Z,9.78
2019-02-14T17:22:12.164Z,9.63
2019-02-14T17:24:44.348Z,9.61
2019-02-14T17:27:14.835Z,9.60
2019-02-14T17:29:45.251Z,9.59
2019-02-14T17:32:16.848Z,9.44
2019-02-14T17:34:49.423Z,9.53
2019-02-14T17:37:20.909Z,9.51
2019-02-14T17:39:52.085Z,9.34
2019-02-14T17:42:24.963Z,9.44
2019-02-14T17:44:55.322Z,9.42
2019-02-14T17:47:28.032Z,9.41
2019-02-14T17:49:59.157Z,9.29
2019-02-14T17:52:29.669Z,9.30
2019-02-14T17:55:02.858Z,9.32
2019-02-14T17:57:35.085Z,9.27
2019-02-14T18:00:08.877Z,9.17
2019-02-14T18:02:40.833Z,9.10
2019-02-14T18:05:14.755Z,9.24
2019-02-14T18:07:45.438Z,9.26
2019-02-14T18:10:16.447Z,9.43
2019-02-14T18:12:46.737Z,9.54
2019-02-14T18:15:17.012Z,9.49
2019-02-14T18:17:47.332Z,9.80
2019-02-14T18:20:17.645Z,9.65
2019-02-14T18:22:49.753Z,9.66
2019-02-14T18:25:21.176Z,9.62
2019-02-14T18:27:51.502Z,9.49
2019-02-14T18:30:21.846Z,9.64
2019-02-14T18:32:52.176Z,9.76
2019-02-14T18:35:23.421Z,9.76
2019-02-14T18:37:54.008Z,9.69
2019-02-14T18:40:24.330Z,9.67
2019-02-14T18:42:54.957Z,9.72
2019-02-14T18:45:25.304Z,9.69
2019-02-14T18:47:56.580Z,9.83
2019-02-14T18:50:26.994Z,9.83
2019-02-14T18:52:57.356Z,9.69
2019-02-14T18:55:27.878Z,9.72
2019-02-14T18:57:58.298Z,9.79
2019-02-14T19:00:28.605Z,9.87
2019-02-14T19:02:59.143Z,9.84
2019-02-14T19:05:29.945Z,9.98
2019-02-14T19:08:02.688Z,10.13
2019-02-14T19:10:34.891Z,10.11
2019-02-14T19:13:05.449Z,10.22
2019-02-14T19:15:36.136Z,10.08
2019-02-14T19:18:07.021Z,9.86
2019-02-14T19:20:37.514Z,9.72
2019-02-14T19:23:07.985Z,9.73
2019-02-14T19:25:38.776Z,9.79
2019-02-14T19:28:09.233Z,9.77
2019-02-14T19:30:40.012Z,9.74
2019-02-14T19:33:10.842Z,9.81
2019-02-14T19:35:42.870Z,9.86
2019-02-14T19:38:13.471Z,9.85
2019-02-14T19:40:43.910Z,9.84
2019-02-14T19:43:15.630Z,9.75
2019-02-14T19:45:46.122Z,9.62
2019-02-14T19:48:17.652Z,9.52
2019-02-14T19:50:48.264Z,9.40
2019-02-14T19:53:19.111Z,9.37
2019-02-14T19:55:49.504Z,9.30
2019-02-14T19:58:20.067Z,9.36
2019-02-14T20:00:51.850Z,9.41
2019-02-14T20:03:22.519Z,9.33
2019-02-14T20:05:52.884Z,9.23
2019-02-14T20:08:24.241Z,9.12
2019-02-14T20:10:54.895Z,9.37
2019-02-14T20:13:25.808Z,9.52
2019-02-14T20:15:56.220Z,10.04
2019-02-14T20:18:26.620Z,9.95
2019-02-14T20:20:57.283Z,10.12
2019-02-14T20:23:36.877Z,10.09
2019-02-14T20:26:07.222Z,10.01
2019-02-14T20:28:39.691Z,9.82
2019-02-14T20:31:10.124Z,9.76
2019-02-14T20:33:40.601Z,9.77
2019-02-14T20:36:11.410Z,9.77
2019-02-14T20:38:42.186Z,9.83
2019-02-14T20:41:16.452Z,9.73
2019-02-14T20:43:46.945Z,9.65
2019-02-14T20:46:17.397Z,9.77
2019-02-14T20:48:48.388Z,9.65
2019-02-14T20:51:20.553Z,9.69
2019-02-14T20:53:51.003Z,9.49
2019-02-14T20:56:21.325Z,9.61
2019-02-14T20:58:54.641Z,9.42
2019-02-14T21:01:26.544Z,9.40
2019-02-14T21:03:56.836Z,9.52
2019-02-14T21:06:27.117Z,9.53
2019-02-14T21:08:59.003Z,9.57
2019-02-14T21:11:29.379Z,9.53
2019-02-14T21:13:59.711Z,9.74
2019-02-14T21:16:30.011Z,9.83
2019-02-14T21:19:00.321Z,9.85
2019-02-14T21:21:30.901Z,9.95
2019-02-14T21:24:01.279Z,10.05
2019-02-14T21:26:31.561Z,10.07
2019-02-14T21:29:01.848Z,9.98
2019-02-14T21:31:32.143Z,10.04
2019-02-14T21:34:02.734Z,9.89
2019-02-14T21:36:34.103Z,10.12
2019-02-14T21:39:05.691Z,10.21
2019-02-14T21:41:36.034Z,10.01
2019-02-14T21:44:07.900Z,10.04
2019-02-14T21:46:38.153Z,10.30
2019-02-14T21:49:10.055Z,10.41
2019-02-14T21:51:40.501Z,10.44
2019-02-14T21:54:10.858Z,10.43
2019-02-14T21:56:41.156Z,10.58
2019-02-14T21:59:11.437Z,10.80
2019-02-14T22:01:41.743Z,10.90
2019-02-14T22:04:12.014Z,10.68
2019-02-14T22:09:21.554Z,10.65
2019-02-14T22:11:54.559Z,10.73
2019-02-14T22:14:25.819Z,10.90
2019-02-14T22:16:56.129Z,10.93
2019-02-14T22:19:26.421Z,10.85
2019-02-14T22:21:56.718Z,10.88
2019-02-14T22:24:27.021Z,10.68
2019-02-14T22:26:57.315Z,10.46
2019-02-14T22:29:27.591Z,10.55
2019-02-14T22:31:57.926Z,10.60
2019-02-14T22:34:28.223Z,10.67
2019-02-14T22:36:58.511Z,10.81
2019-02-14T22:39:28.809Z,10.93
2019-02-14T22:41:59.184Z,11.04
2019-02-14T22:44:29.533Z,11.08
2019-02-14T22:46:59.813Z,11.05
2019-02-14T22:49:30.082Z,11.09
2019-02-14T22:52:00.352Z,10.95
2019-02-14T22:54:30.627Z,10.77
2019-02-14T22:57:00.958Z,10.82
2019-02-14T22:59:31.246Z,10.95
2019-02-14T23:02:01.550Z,10.86
2019-02-14T23:04:31.819Z,10.92
2019-02-14T23:07:03.660Z,10.92
2019-02-14T23:09:34.185Z,10.66
2019-02-14T23:12:04.463Z,10.77
2019-02-14T23:14:34.805Z,10.70
2019-02-14T23:17:05.076Z,10.69
2019-02-14T23:19:35.405Z,10.47
2019-02-14T23:22:05.688Z,10.25
2019-02-14T23:24:35.949Z,9.87
2019-02-14T23:27:07.194Z,10.11
2019-02-14T23:29:37.492Z,10.11
2019-02-14T23:32:07.790Z,10.06
2019-02-14T23:34:38.076Z,9.60
2019-02-14T23:37:08.555Z,9.75
2019-02-14T23:39:38.838Z,9.56
2019-02-14T23:42:09.121Z,9.41
2019-02-14T23:44:39.723Z,9.53
2019-02-14T23:47:10.004Z,9.47
2019-02-14T23:49:40.313Z,9.42
2019-02-14T23:52:10.620Z,9.44
2019-02-14T23:54:40.914Z,9.66
2019-02-14T23:57:11.238Z,9.70
2019-02-14T23:59:41.522Z,9.74
